createdAt,value
2018-07-17T00:01:59.834Z,101198.47
2018-07-17T00:04:28.358Z,101196.29
2018-07-17T00:06:56.923Z,101207.08
2018-07-17T00:09:25.485Z,101200.47
2018-07-17T00:11:54.715Z,101198.70
2018-07-17T00:14:23.286Z,101205.00
2018-07-17T00:16:51.752Z,101202.41
2018-07-17T00:19:20.327Z,101198.83
2018-07-17T00:21:48.827Z,101204.14
2018-07-17T00:24:17.401Z,101203.15
2018-07-17T00:26:45.834Z,101201.31
2018-07-17T00:29:14.285Z,101203.13
2018-07-17T00:31:42.887Z,101197.84
2018-07-17T00:34:11.452Z,101201.79
2018-07-17T00:36:39.894Z,101193.73
2018-07-17T00:39:08.636Z,101190.14
2018-07-17T00:41:37.161Z,101194.60
2018-07-17T00:44:05.694Z,101190.59
2018-07-17T00:46:34.233Z,101194.17
2018-07-17T00:49:02.721Z,101189.73
2018-07-17T00:51:31.199Z,101196.89
2018-07-17T00:53:59.764Z,101195.62
2018-07-17T00:56:28.200Z,101185.86
2018-07-17T00:58:56.620Z,101190.80
2018-07-17T01:01:30.519Z,101184.62
2018-07-17T01:04:04.185Z,101188.68
2018-07-17T01:06:38.039Z,101177.59
2018-07-17T01:09:13.133Z,101173.17
2018-07-17T01:11:47.041Z,101172.73
2018-07-17T01:14:20.505Z,101164.28
2018-07-17T01:16:49.005Z,101167.84
2018-07-17T01:19:17.451Z,101162.45
2018-07-17T01:21:45.965Z,101161.08
2018-07-17T01:24:14.392Z,101154.03
2018-07-17T01:26:42.845Z,101151.41
2018-07-17T01:29:11.291Z,101142.91
2018-07-17T01:31:39.761Z,101129.48
2018-07-17T01:34:08.260Z,101133.45
2018-07-17T01:36:36.733Z,101131.65
2018-07-17T01:39:06.555Z,101126.27
2018-07-17T01:41:35.019Z,101119.56
2018-07-17T01:44:03.562Z,101118.22
2018-07-17T01:46:32.119Z,101109.72
2018-07-17T01:49:00.680Z,101118.63
2018-07-17T01:51:29.168Z,101118.66
2018-07-17T01:53:57.870Z,101124.53
2018-07-17T01:56:26.309Z,101118.41
2018-07-17T01:58:54.773Z,101117.58
2018-07-17T02:01:23.911Z,101118.53
2018-07-17T02:03:52.403Z,101114.97
2018-07-17T02:06:20.888Z,101119.84
2018-07-17T02:08:50.580Z,101113.14
2018-07-17T02:11:19.073Z,101118.05
2018-07-17T02:13:47.554Z,101120.98
2018-07-17T02:16:16.181Z,101123.87
2018-07-17T02:18:45.330Z,101132.39
2018-07-17T02:21:13.955Z,101134.66
2018-07-17T02:23:42.607Z,101148.13
2018-07-17T02:26:11.074Z,101144.23
2018-07-17T02:28:39.556Z,101147.81
2018-07-17T02:31:08.358Z,101144.78
2018-07-17T02:33:36.836Z,101151.03
2018-07-17T02:36:05.447Z,101150.18
2018-07-17T02:38:33.887Z,101157.30
2018-07-17T02:41:02.385Z,101165.41
2018-07-17T02:43:30.915Z,101166.81
2018-07-17T02:45:59.444Z,101167.73
2018-07-17T02:48:27.885Z,101160.16
2018-07-17T02:50:56.440Z,101161.44
2018-07-17T02:53:25.004Z,101154.69
2018-07-17T02:55:53.630Z,101154.28
2018-07-17T02:58:22.100Z,101167.16
2018-07-17T03:00:50.645Z,101172.97
2018-07-17T03:03:19.229Z,101174.34
2018-07-17T03:05:47.693Z,101173.00
2018-07-17T03:08:16.221Z,101175.64
2018-07-17T03:10:44.795Z,101170.69
2018-07-17T03:13:13.268Z,101180.47
2018-07-17T03:15:41.721Z,101183.63
2018-07-17T03:18:10.159Z,101188.57
2018-07-17T03:20:38.716Z,101180.58
2018-07-17T03:23:07.195Z,101181.92
2018-07-17T03:25:35.637Z,101186.84
2018-07-17T03:28:04.168Z,101190.41
2018-07-17T03:30:32.736Z,101187.76
2018-07-17T03:33:01.324Z,101191.33
2018-07-17T03:35:30.421Z,101199.34
2018-07-17T03:37:59.109Z,101196.27
2018-07-17T03:40:27.577Z,101188.70
2018-07-17T03:42:56.169Z,101188.25
2018-07-17T03:45:24.698Z,101187.84
2018-07-17T03:47:53.225Z,101186.97
2018-07-17T03:50:21.823Z,101193.66
2018-07-17T03:52:50.353Z,101194.55
2018-07-17T03:55:18.856Z,101202.16
2018-07-17T03:57:47.351Z,101208.44
2018-07-17T04:00:15.871Z,101202.23
2018-07-17T04:02:44.369Z,101203.09
2018-07-17T04:05:12.905Z,101203.98
2018-07-17T04:07:41.393Z,101212.88
2018-07-17T04:10:09.871Z,101217.34
2018-07-17T04:12:38.314Z,101224.03
2018-07-17T04:15:06.764Z,101217.34
2018-07-17T04:17:35.338Z,101215.98
2018-07-17T04:20:03.945Z,101214.64
2018-07-17T04:22:32.560Z,101225.30
2018-07-17T04:25:01.065Z,101221.75
2018-07-17T04:27:29.549Z,101215.05
2018-07-17T04:29:58.025Z,101220.34
2018-07-17T04:32:26.544Z,101225.20
2018-07-17T04:34:54.980Z,101229.17
2018-07-17T04:37:23.520Z,101228.69
2018-07-17T04:39:52.024Z,101221.54
2018-07-17T04:42:20.542Z,101225.57
2018-07-17T04:44:49.041Z,101230.85
2018-07-17T04:47:17.509Z,101229.90
2018-07-17T04:49:45.988Z,101231.16
2018-07-17T04:52:14.468Z,101236.41
2018-07-17T04:54:42.964Z,101228.73
2018-07-17T04:57:11.694Z,101230.86
2018-07-17T04:59:40.232Z,101234.28
2018-07-17T05:02:09.057Z,101231.94
2018-07-17T05:04:41.635Z,101241.14
2018-07-17T05:07:10.289Z,101240.53
2018-07-17T05:09:38.906Z,101238.19
2018-07-17T05:12:07.480Z,101238.06
2018-07-17T05:14:36.044Z,101237.89
2018-07-17T05:17:04.519Z,101231.91
2018-07-17T05:19:33.103Z,101231.77
2018-07-17T05:22:01.541Z,101229.77
2018-07-17T05:24:30.059Z,101231.33
2018-07-17T05:26:58.586Z,101236.89
2018-07-17T05:29:27.062Z,101234.95
2018-07-17T05:31:55.667Z,101240.17
2018-07-17T05:34:24.356Z,101242.34
2018-07-17T05:36:53.120Z,101240.52
2018-07-17T05:39:21.575Z,101245.34
2018-07-17T05:41:50.063Z,101251.08
2018-07-17T05:44:18.539Z,101250.43
2018-07-17T05:46:47.009Z,101248.87
2018-07-17T05:49:15.443Z,101249.18
2018-07-17T05:51:43.987Z,101246.75
2018-07-17T05:54:12.453Z,101249.19
2018-07-17T05:56:40.870Z,101255.72
2018-07-17T05:59:09.333Z,101275.53
2018-07-17T06:01:37.804Z,101267.64
2018-07-17T06:04:06.318Z,101272.83
2018-07-17T06:06:34.757Z,101272.73
2018-07-17T06:09:03.229Z,101278.21
2018-07-17T06:11:31.739Z,101278.28
2018-07-17T06:14:00.324Z,101288.13
2018-07-17T06:16:29.006Z,101291.23
2018-07-17T06:18:57.464Z,101287.27
2018-07-17T06:21:25.951Z,101286.41
2018-07-17T06:23:54.477Z,101290.05
2018-07-17T06:26:22.920Z,101284.75
2018-07-17T06:28:51.416Z,101289.63
2018-07-17T06:31:19.948Z,101291.79
2018-07-17T06:33:48.540Z,101293.56
2018-07-17T06:36:17.085Z,101288.63
2018-07-17T06:38:45.549Z,101290.93
2018-07-17T06:41:14.121Z,101290.09
2018-07-17T06:43:42.638Z,101295.86
2018-07-17T06:46:11.184Z,101298.91
2018-07-17T06:48:39.670Z,101298.27
2018-07-17T06:51:08.128Z,101299.92
2018-07-17T06:53:37.652Z,101301.70
2018-07-17T06:56:06.196Z,101302.02
2018-07-17T06:58:34.756Z,101303.73
2018-07-17T07:01:03.251Z,101309.05
2018-07-17T07:03:31.701Z,101308.02
2018-07-17T07:06:00.838Z,101298.97
2018-07-17T07:08:29.385Z,101303.45
2018-07-17T07:10:57.944Z,101302.54
2018-07-17T07:13:26.438Z,101308.62
2018-07-17T07:15:55.024Z,101304.39
2018-07-17T07:18:23.591Z,101306.98
2018-07-17T07:20:52.090Z,101308.11
2018-07-17T07:23:20.751Z,101310.22
2018-07-17T07:25:49.910Z,101309.66
2018-07-17T07:28:18.452Z,101307.73
2018-07-17T07:30:47.039Z,101312.03
2018-07-17T07:33:15.517Z,101311.47
2018-07-17T07:35:44.872Z,101305.52
2018-07-17T07:38:13.525Z,101314.78
2018-07-17T07:40:42.127Z,101325.75
2018-07-17T07:43:10.878Z,101325.68
2018-07-17T07:45:39.400Z,101321.90
2018-07-17T07:48:08.061Z,101327.52
2018-07-17T07:50:36.508Z,101328.37
2018-07-17T07:53:05.240Z,101327.86
2018-07-17T07:55:33.809Z,101327.19
2018-07-17T07:58:02.377Z,101334.05
2018-07-17T08:00:30.845Z,101335.44
2018-07-17T08:02:59.266Z,101334.41
2018-07-17T08:05:27.826Z,101337.29
2018-07-17T08:07:56.299Z,101327.77
2018-07-17T08:10:24.737Z,101334.95
2018-07-17T08:12:53.259Z,101333.14
2018-07-17T08:15:21.738Z,101341.98
2018-07-17T08:17:50.196Z,101334.95
2018-07-17T08:20:18.705Z,101334.06
2018-07-17T08:22:47.328Z,101339.98
2018-07-17T08:25:15.865Z,101334.28
2018-07-17T08:27:44.412Z,101329.58
2018-07-17T08:30:12.901Z,101330.83
2018-07-17T08:32:41.434Z,101327.83
2018-07-17T08:35:10.237Z,101329.32
2018-07-17T08:37:38.714Z,101335.22
2018-07-17T08:40:08.443Z,101334.34
2018-07-17T08:42:44.897Z,101334.76
2018-07-17T08:45:13.469Z,101328.95
2018-07-17T08:47:41.918Z,101329.82
2018-07-17T08:50:10.427Z,101327.20
2018-07-17T08:52:38.923Z,101331.16
2018-07-17T08:55:07.502Z,101332.36
2018-07-17T08:57:36.081Z,101328.94
2018-07-17T09:00:05.174Z,101325.78
2018-07-17T09:02:33.657Z,101329.13
2018-07-17T09:05:02.241Z,101327.59
2018-07-17T09:07:30.737Z,101330.09
2018-07-17T09:09:59.182Z,101327.79
2018-07-17T09:12:27.681Z,101328.33
2018-07-17T09:14:56.227Z,101331.95
2018-07-17T09:17:24.742Z,101325.68
2018-07-17T09:19:53.226Z,101323.77
2018-07-17T09:22:21.740Z,101324.03
2018-07-17T09:24:50.402Z,101324.34
2018-07-17T09:27:18.964Z,101325.48
2018-07-17T09:29:47.429Z,101329.67
2018-07-17T09:32:16.051Z,101331.95
2018-07-17T09:34:44.510Z,101339.47
2018-07-17T09:37:13.010Z,101333.30
2018-07-17T09:39:41.474Z,101339.28
2018-07-17T09:42:10.008Z,101339.03
2018-07-17T09:44:51.147Z,101330.66
2018-07-17T09:47:19.585Z,101336.95
2018-07-17T09:49:48.145Z,101338.08
2018-07-17T09:52:31.838Z,101345.53
2018-07-17T09:58:49.552Z,101346.06
2018-07-17T10:01:23.253Z,101344.59
2018-07-17T10:03:51.780Z,101348.41
2018-07-17T10:06:20.427Z,101338.71
2018-07-17T10:12:10.227Z,101349.16
2018-07-17T10:14:38.812Z,101346.14
2018-07-17T10:17:07.333Z,101345.36
2018-07-17T10:19:58.031Z,101340.03
2018-07-17T10:22:26.527Z,101345.98
2018-07-17T10:24:55.026Z,101344.16
2018-07-17T10:27:23.465Z,101345.85
2018-07-17T10:29:57.145Z,101344.86
2018-07-17T10:32:25.631Z,101342.35
2018-07-17T10:34:54.129Z,101345.42
2018-07-17T10:37:22.571Z,101349.46
2018-07-17T10:39:51.356Z,101350.81
2018-07-17T10:42:20.128Z,101348.13
2018-07-17T10:44:48.700Z,101364.20
2018-07-17T10:47:17.227Z,101349.16
2018-07-17T10:49:45.765Z,101344.08
2018-07-17T10:52:14.242Z,101359.05
2018-07-17T10:55:04.173Z,101350.70
2018-07-17T10:57:32.701Z,101348.11
2018-07-17T11:00:01.216Z,101350.33
2018-07-17T11:02:29.763Z,101355.21
2018-07-17T11:04:58.246Z,101350.37
2018-07-17T11:07:26.729Z,101342.23
2018-07-17T11:09:55.242Z,101341.66
2018-07-17T11:12:35.484Z,101343.33
2018-07-17T11:15:04.296Z,101338.84
2018-07-17T11:17:33.030Z,101342.34
2018-07-17T11:20:01.517Z,101338.77
2018-07-17T11:22:30.159Z,101341.52
2018-07-17T11:24:58.692Z,101352.37
2018-07-17T11:27:30.862Z,101345.09
2018-07-17T11:29:59.761Z,101345.08
2018-07-17T11:32:28.231Z,101347.80
2018-07-17T11:35:27.417Z,101350.64
2018-07-17T11:37:56.032Z,101349.86
2018-07-17T11:40:24.707Z,101332.03
2018-07-17T11:42:53.232Z,101345.65
2018-07-17T11:45:21.778Z,101345.26
2018-07-17T11:48:03.815Z,101343.58
2018-07-17T11:50:32.335Z,101339.98
2018-07-17T11:53:02.897Z,101341.94
2018-07-17T11:55:31.877Z,101335.83
2018-07-17T11:58:00.485Z,101336.22
2018-07-17T12:00:29.187Z,101335.73
2018-07-17T12:02:57.722Z,101334.40
2018-07-17T12:05:26.253Z,101336.80
2018-07-17T12:07:55.089Z,101334.03
2018-07-17T12:10:23.617Z,101338.36
2018-07-17T12:12:52.419Z,101342.48
2018-07-17T12:15:20.904Z,101345.80
2018-07-17T12:17:57.439Z,101341.36
2018-07-17T12:20:26.130Z,101335.95
2018-07-17T12:22:54.476Z,101347.56
2018-07-17T12:25:23.009Z,101337.94
2018-07-17T12:27:51.545Z,101341.68
2018-07-17T12:30:20.063Z,101337.50
2018-07-17T12:32:48.616Z,101343.11
2018-07-17T12:35:17.181Z,101337.19
2018-07-17T12:37:45.653Z,101332.55
2018-07-17T12:40:14.198Z,101340.91
2018-07-17T12:42:46.014Z,101333.86
2018-07-17T12:45:14.567Z,101336.97
2018-07-17T12:47:43.101Z,101341.64
2018-07-17T12:50:11.633Z,101331.18
2018-07-17T12:52:40.210Z,101342.34
2018-07-17T12:55:35.176Z,101330.76
2018-07-17T12:58:03.732Z,101328.04
2018-07-17T13:00:32.231Z,101333.20
2018-07-17T13:03:00.802Z,101322.63
2018-07-17T13:05:29.393Z,101327.81
2018-07-17T13:07:57.971Z,101326.44
2018-07-17T13:10:26.436Z,101334.44
2018-07-17T13:12:54.923Z,101324.39
2018-07-17T13:15:23.402Z,101332.19
2018-07-17T13:17:51.946Z,101334.85
2018-07-17T13:20:20.482Z,101335.46
2018-07-17T13:22:49.075Z,101334.08
2018-07-17T13:25:17.649Z,101327.45
2018-07-17T13:27:46.113Z,101329.04
2018-07-17T13:30:14.699Z,101332.06
2018-07-17T13:32:43.280Z,101333.94
2018-07-17T13:35:11.960Z,101330.45
2018-07-17T13:37:40.412Z,101336.17
2018-07-17T13:40:09.250Z,101331.33
2018-07-17T13:42:37.808Z,101329.53
2018-07-17T13:45:06.645Z,101340.79
2018-07-17T13:47:35.173Z,101330.12
2018-07-17T13:50:03.774Z,101341.00
2018-07-17T13:52:32.232Z,101337.57
2018-07-17T13:55:00.733Z,101335.02
2018-07-17T13:57:29.630Z,101326.14
2018-07-17T13:59:58.274Z,101331.14
2018-07-17T14:02:26.742Z,101322.80
2018-07-17T14:04:55.288Z,101321.08
2018-07-17T14:07:23.866Z,101317.75
2018-07-17T14:09:52.548Z,101317.53
2018-07-17T14:12:21.073Z,101326.84
2018-07-17T14:14:56.950Z,101330.49
2018-07-17T14:17:25.522Z,101328.33
2018-07-17T14:19:54.105Z,101319.88
2018-07-17T14:22:22.726Z,101319.94
2018-07-17T14:24:51.197Z,101330.45
2018-07-17T14:27:19.638Z,101324.81
2018-07-17T14:29:48.193Z,101318.80
2018-07-17T14:32:16.650Z,101314.55
2018-07-17T14:34:45.163Z,101313.67
2018-07-17T14:37:13.622Z,101310.02
2018-07-17T14:39:42.121Z,101310.30
2018-07-17T14:42:10.676Z,101312.47
2018-07-17T14:44:39.302Z,101327.12
2018-07-17T14:47:07.760Z,101323.34
2018-07-17T14:49:36.324Z,101319.00
2018-07-17T14:52:05.111Z,101319.61
2018-07-17T14:54:33.617Z,101316.80
2018-07-17T14:57:02.291Z,101313.58
2018-07-17T14:59:30.770Z,101321.42
2018-07-17T15:01:59.246Z,101306.70
2018-07-17T15:04:27.723Z,101315.80
2018-07-17T15:06:56.297Z,101316.08
2018-07-17T15:09:24.876Z,101321.31
2018-07-17T15:11:53.384Z,101318.11
2018-07-17T15:14:22.069Z,101319.66
2018-07-17T15:16:50.729Z,101301.45
2018-07-17T15:19:19.244Z,101306.56
2018-07-17T15:21:51.857Z,101312.54
2018-07-17T15:24:20.324Z,101317.89
2018-07-17T15:26:48.858Z,101306.20
2018-07-17T15:29:21.024Z,101309.08
2018-07-17T15:32:19.929Z,101315.79
2018-07-17T15:34:48.404Z,101309.56
2018-07-17T15:37:17.028Z,101305.78
2018-07-17T15:39:45.558Z,101307.84
2018-07-17T15:42:14.356Z,101304.10
2018-07-17T15:44:42.850Z,101314.25
2018-07-17T15:47:11.634Z,101310.91
2018-07-17T15:49:40.132Z,101312.66
2018-07-17T15:52:08.685Z,101322.30
2018-07-17T15:54:38.281Z,101319.06
2018-07-17T15:57:06.872Z,101315.81
2018-07-17T15:59:35.325Z,101325.56
2018-07-17T16:02:03.785Z,101328.82
2018-07-17T16:04:32.343Z,101327.06
2018-07-17T16:07:01.110Z,101327.20
2018-07-17T16:09:29.561Z,101327.36
2018-07-17T16:11:58.059Z,101334.27
2018-07-17T16:14:26.741Z,101324.83
2018-07-17T16:16:55.129Z,101325.83
2018-07-17T16:19:24.565Z,101330.22
2018-07-17T16:21:53.107Z,101322.19
2018-07-17T16:24:21.765Z,101331.45
2018-07-17T16:26:50.287Z,101338.36
2018-07-17T16:29:18.762Z,101327.75
2018-07-17T16:31:47.243Z,101329.38
2018-07-17T16:34:15.751Z,101341.75
2018-07-17T16:36:44.326Z,101330.09
2018-07-17T16:39:12.780Z,101340.56
2018-07-17T16:41:41.267Z,101345.08
2018-07-17T16:44:09.714Z,101338.35
2018-07-17T16:46:38.656Z,101340.31
2018-07-17T16:49:07.231Z,101348.66
2018-07-17T16:51:35.785Z,101344.80
2018-07-17T16:54:04.236Z,101346.11
2018-07-17T16:56:32.967Z,101357.41
2018-07-17T16:59:01.449Z,101357.34
2018-07-17T17:01:29.877Z,101365.06
2018-07-17T17:03:58.437Z,101367.52
2018-07-17T17:06:26.915Z,101372.45
2018-07-17T17:08:55.536Z,101376.77
2018-07-17T17:11:24.289Z,101376.61
2018-07-17T17:13:52.873Z,101376.19
2018-07-17T17:16:21.481Z,101383.23
2018-07-17T17:18:50.037Z,101388.63
2018-07-17T17:21:18.607Z,101385.94
2018-07-17T17:23:47.236Z,101390.25
2018-07-17T17:26:15.792Z,101398.61
2018-07-17T17:28:44.286Z,101392.84
2018-07-17T17:31:14.893Z,101389.00
2018-07-17T17:33:43.372Z,101398.40
2018-07-17T17:36:12.139Z,101405.20
2018-07-17T17:38:40.652Z,101412.31
2018-07-17T17:41:09.085Z,101402.19
2018-07-17T17:43:38.632Z,101404.42
2018-07-17T17:46:07.122Z,101402.77
2018-07-17T17:48:36.338Z,101407.33
2018-07-17T17:51:08.788Z,101409.82
2018-07-17T17:53:37.245Z,101418.69
2018-07-17T17:56:05.796Z,101410.02
2018-07-17T17:58:34.536Z,101425.02
2018-07-17T18:01:10.311Z,101420.60
2018-07-17T18:03:38.732Z,101422.41
2018-07-17T18:06:07.198Z,101418.80
2018-07-17T18:08:35.637Z,101431.66
2018-07-17T18:11:04.101Z,101432.67
2018-07-17T18:13:32.575Z,101442.07
2018-07-17T18:16:01.188Z,101440.52
2018-07-17T18:18:29.803Z,101453.97
2018-07-17T18:20:58.216Z,101451.48
2018-07-17T18:23:26.705Z,101460.64
2018-07-17T18:25:55.153Z,101471.61
2018-07-17T18:28:23.734Z,101471.59
2018-07-17T18:30:52.205Z,101473.22
2018-07-17T18:33:20.739Z,101475.80
2018-07-17T18:35:49.186Z,101486.83
2018-07-17T18:38:18.122Z,101492.02
2018-07-17T18:40:46.614Z,101500.67
2018-07-17T18:43:15.046Z,101503.97
2018-07-17T18:45:43.771Z,101509.59
2018-07-17T18:48:12.321Z,101512.48
2018-07-17T18:50:41.132Z,101518.48
2018-07-17T18:53:09.609Z,101517.73
2018-07-17T18:55:50.536Z,101522.42
2018-07-17T18:58:18.962Z,101526.61
2018-07-17T19:00:48.108Z,101535.70
2018-07-17T19:03:16.774Z,101537.12
2018-07-17T19:05:45.365Z,101526.54
2018-07-17T19:08:14.115Z,101539.22
2018-07-17T19:10:44.350Z,101544.70
2018-07-17T19:13:12.843Z,101551.14
2018-07-17T19:15:41.400Z,101554.39
2018-07-17T19:18:10.005Z,101556.83
2018-07-17T19:20:38.479Z,101563.22
2018-07-17T19:23:07.738Z,101564.21
2018-07-17T19:25:36.916Z,101574.12
2018-07-17T19:28:05.500Z,101580.45
2018-07-17T19:30:33.973Z,101574.27
2018-07-17T19:33:02.530Z,101582.78
2018-07-17T19:35:31.142Z,101582.87
2018-07-17T19:37:59.696Z,101587.84
2018-07-17T19:40:28.138Z,101587.01
2018-07-17T19:42:56.654Z,101592.46
2018-07-17T19:45:25.094Z,101593.88
2018-07-17T19:47:53.657Z,101597.94
2018-07-17T19:50:22.191Z,101602.44
2018-07-17T19:52:50.769Z,101601.62
2018-07-17T19:55:19.380Z,101604.34
2018-07-17T19:57:47.897Z,101604.86
2018-07-17T20:00:17.578Z,101606.22
2018-07-17T20:02:46.169Z,101610.73
2018-07-17T20:05:14.780Z,101614.38
2018-07-17T20:07:43.250Z,101618.43
2018-07-17T20:10:11.815Z,101616.24
2018-07-17T20:13:12.755Z,101617.61
2018-07-17T20:15:41.285Z,101622.53
2018-07-17T20:18:09.800Z,101626.56
2018-07-17T20:20:38.409Z,101628.81
2018-07-17T20:23:06.923Z,101630.17
2018-07-17T20:25:35.488Z,101627.53
2018-07-17T20:28:04.033Z,101633.37
2018-07-17T20:30:32.778Z,101636.54
2018-07-17T20:33:01.248Z,101634.78
2018-07-17T20:35:29.766Z,101641.91
2018-07-17T20:37:58.236Z,101636.58
2018-07-17T20:40:26.728Z,101640.16
2018-07-17T20:42:55.249Z,101645.97
2018-07-17T20:45:23.861Z,101648.23
2018-07-17T20:47:52.338Z,101657.61
2018-07-17T20:50:28.918Z,101656.28
2018-07-17T20:52:57.551Z,101654.07
2018-07-17T20:55:26.045Z,101656.74
2018-07-17T20:57:54.845Z,101662.09
2018-07-17T21:00:23.339Z,101660.76
2018-07-17T21:02:52.220Z,101664.25
2018-07-17T21:05:20.798Z,101659.34
2018-07-17T21:07:49.268Z,101668.23
2018-07-17T21:10:17.754Z,101667.34
2018-07-17T21:12:46.222Z,101666.02
2018-07-17T21:15:14.741Z,101669.12
2018-07-17T21:17:47.208Z,101670.44
2018-07-17T21:20:15.764Z,101669.97
2018-07-17T21:22:44.289Z,101679.72
2018-07-17T21:28:31.012Z,101682.31
2018-07-17T21:30:59.638Z,101690.30
2018-07-17T21:33:28.406Z,101679.58
2018-07-17T21:35:57.088Z,101683.53
2018-07-17T21:38:25.641Z,101691.49
2018-07-17T21:40:54.219Z,101693.65
2018-07-17T21:43:22.811Z,101694.02
2018-07-17T21:45:51.284Z,101696.20
2018-07-17T21:48:20.002Z,101689.95
2018-07-17T21:50:48.766Z,101693.45
2018-07-17T21:53:17.236Z,101697.84
2018-07-17T21:55:45.943Z,101696.05
2018-07-17T21:58:14.509Z,101700.47
2018-07-17T22:00:52.928Z,101695.13
2018-07-17T22:03:28.595Z,101696.86
2018-07-17T22:05:57.268Z,101697.65
2018-07-17T22:08:25.861Z,101704.20
2018-07-17T22:10:54.467Z,101705.05
2018-07-17T22:13:23.090Z,101703.65
2018-07-17T22:15:51.685Z,101702.29
2018-07-17T22:18:20.154Z,101701.36
2018-07-17T22:20:48.599Z,101707.98
2018-07-17T22:23:17.443Z,101704.83
2018-07-17T22:25:45.931Z,101710.59
2018-07-17T22:28:14.653Z,101712.34
2018-07-17T22:30:43.153Z,101708.70
2018-07-17T22:33:22.684Z,101708.19
2018-07-17T22:35:51.181Z,101709.45
2018-07-17T22:38:19.753Z,101704.53
2018-07-17T22:40:48.275Z,101708.03
2018-07-17T22:43:17.649Z,101705.80
2018-07-17T22:45:46.203Z,101703.91
2018-07-17T22:48:14.664Z,101704.71
2018-07-17T22:50:43.138Z,101708.84
2018-07-17T22:53:11.925Z,101706.38
2018-07-17T22:55:40.552Z,101713.00
2018-07-17T22:58:10.137Z,101716.48
2018-07-17T23:00:51.765Z,101721.81
2018-07-17T23:03:20.300Z,101724.44
2018-07-17T23:05:48.773Z,101720.02
2018-07-17T23:08:17.252Z,101720.70
2018-07-17T23:10:45.941Z,101715.95
2018-07-17T23:13:15.006Z,101718.39
2018-07-17T23:15:43.515Z,101715.27
2018-07-17T23:18:12.061Z,101713.56
2018-07-17T23:20:40.575Z,101710.94
2018-07-17T23:23:09.055Z,101713.53
2018-07-17T23:25:37.524Z,101717.27
2018-07-17T23:28:06.021Z,101718.77
2018-07-17T23:30:34.507Z,101714.54
2018-07-17T23:33:03.000Z,101719.25
2018-07-17T23:35:31.433Z,101716.62
2018-07-17T23:37:59.862Z,101715.37
2018-07-17T23:40:28.365Z,101723.02
2018-07-17T23:42:56.801Z,101725.25
2018-07-17T23:45:25.293Z,101727.07
2018-07-17T23:47:53.771Z,101724.83
2018-07-17T23:50:22.181Z,101728.31
2018-07-17T23:52:50.623Z,101721.84
2018-07-17T23:55:19.100Z,101725.30
2018-07-17T23:57:47.528Z,101726.95
